Time;durP1;ratioP1;P1;durP2;ratioP2;P2;SDS_P1;SDS_P2;PMS_P1;PMS_P2;Temp;Humidity;BMP_temperature;BMP_pressure;BME280_temperature;BME280_humidity;BME280_pressure;Samples;Min_cycle;Max_cycle;Signal;HPM_P1;HPM_P2
2021/06/29 00:01:00;;;;;;;;;2.00;2.00;;;;;23.94;47.75;101198.72;5062794;28;45425;-77
2021/06/29 00:03:26;;;;;;;;;1.00;1.00;;;;;24.09;47.28;101208.53;5062404;28;45470;-77
2021/06/29 00:05:51;;;;;;;;;2.00;2.00;;;;;24.28;47.30;101220.44;5062127;28;46680;-78
2021/06/29 00:08:17;;;;;;;;;1.00;1.00;;;;;24.55;46.87;101243.03;5064273;28;45299;-78
2021/06/29 00:10:42;;;;;;;;;1.00;1.00;;;;;24.59;46.85;101226.50;5065395;28;45264;-78
2021/06/29 00:13:08;;;;;;;;;2.00;2.00;;;;;24.71;47.03;101231.34;5071856;28;45326;-77
2021/06/29 00:15:34;;;;;;;;;1.25;1.25;;;;;24.81;46.46;101218.53;5062194;28;45250;-78
2021/06/29 00:18:00;;;;;;;;;2.00;2.00;;;;;24.65;46.38;101184.19;5062867;28;45177;-77
2021/06/29 00:20:26;;;;;;;;;1.75;1.75;;;;;24.77;46.54;101193.34;5062401;28;45236;-77
2021/06/29 00:22:52;;;;;;;;;1.25;1.25;;;;;24.91;46.19;101199.59;5060957;28;45283;-77
2021/06/29 00:25:18;;;;;;;;;2.00;2.00;;;;;25.09;46.32;101229.44;5062382;28;46174;-77
2021/06/29 00:27:44;;;;;;;;;2.00;2.00;;;;;25.06;45.81;101209.34;5062443;28;45327;-77
2021/06/29 00:30:11;;;;;;;;;3.00;1.00;;;;;25.12;46.27;101207.78;5061285;28;45349;-77
2021/06/29 00:32:37;;;;;;;;;1.75;1.75;;;;;25.07;46.01;101181.72;5061901;28;45363;-77
2021/06/29 00:35:04;;;;;;;;;1.50;1.25;;;;;25.31;45.80;101210.78;5076752;28;46528;-76
2021/06/29 00:37:30;;;;;;;;;1.25;1.25;;;;;25.43;45.68;101214.56;5061705;28;46222;-77
2021/06/29 00:39:55;;;;;;;;;1.25;1.25;;;;;25.31;45.95;101192.16;5060047;28;45352;-77
2021/06/29 00:42:21;;;;;;;;;2.25;1.75;;;;;25.36;45.67;101187.88;5060840;28;45217;-77
2021/06/29 00:44:46;;;;;;;;;1.00;1.00;;;;;25.55;45.64;101219.34;5075857;28;46199;-77
2021/06/29 00:47:12;;;;;;;;;1.50;1.00;;;;;25.57;45.54;101220.81;5061987;28;45131;-77
2021/06/29 00:49:38;;;;;;;;;2.25;2.00;;;;;25.21;45.43;101155.22;5060562;28;45204;-77
2021/06/29 00:52:05;;;;;;;;;2.00;2.00;;;;;25.55;45.54;101206.03;5062090;28;45304;-77
2021/06/29 00:54:34;;;;;;;;;2.25;1.00;;;;;25.50;45.56;101191.44;5061629;28;45343;-77
2021/06/29 00:57:00;;;;;;;;;1.25;1.25;;;;;25.63;45.43;101204.03;5063633;28;45231;-77
2021/06/29 00:59:25;;;;;;;;;4.25;2.75;;;;;25.63;45.13;101201.34;5064399;27;45239;-77
2021/06/29 01:01:51;;;;;;;;;2.50;1.50;;;;;25.69;45.61;101207.75;5060822;28;45545;-77
2021/06/29 01:04:16;;;;;;;;;2.50;2.50;;;;;25.42;45.44;101153.50;5059691;28;48291;-77
2021/06/29 01:06:43;;;;;;;;;1.00;1.00;;;;;25.67;45.07;101184.97;5061083;28;45388;-77
2021/06/29 01:09:09;;;;;;;;;1.00;1.00;;;;;25.35;45.22;101138.28;5074270;28;45343;-77
2021/06/29 01:11:34;;;;;;;;;1.00;1.00;;;;;25.69;45.25;101183.75;5081122;28;45318;-77
2021/06/29 01:14:11;;;;;;;;;2.50;2.00;;;;;25.64;45.35;101170.22;5081088;28;45512;-77
2021/06/29 01:16:36;;;;;;;;;4.00;2.00;;;;;25.66;45.26;101170.03;5069886;28;45427;-77
2021/06/29 01:19:02;;;;;;;;;2.00;2.00;;;;;25.81;45.09;101185.91;5081534;28;45303;-77
2021/06/29 01:21:35;;;;;;;;;1.75;1.00;;;;;25.71;45.15;101168.41;5081725;28;45398;-77
2021/06/29 01:24:01;;;;;;;;;2.00;1.00;;;;;25.73;44.98;101169.06;5081617;28;46262;-77
2021/06/29 01:26:30;;;;;;;;;2.00;2.00;;;;;25.80;44.90;101173.59;5081886;28;45733;-77
2021/06/29 01:29:03;;;;;;;;;1.00;1.00;;;;;25.74;44.92;101168.03;5081379;28;45248;-77
2021/06/29 01:31:31;;;;;;;;;1.75;1.75;;;;;25.71;45.09;101163.06;5081297;28;45314;-77
2021/06/29 01:33:56;;;;;;;;;1.00;1.00;;;;;25.93;44.94;101197.66;5079844;28;47495;-77
2021/06/29 01:36:24;;;;;;;;;1.00;1.00;;;;;25.76;45.01;101167.03;5079413;28;45271;-78
2021/06/29 01:38:51;;;;;;;;;1.00;1.00;;;;;25.87;44.88;101174.44;5061450;28;45386;-77
2021/06/29 01:41:21;;;;;;;;;2.00;2.00;;;;;25.56;44.84;101122.41;5059637;28;45557;-77
2021/06/29 01:43:59;;;;;;;;;0.67;0.67;;;;;25.76;44.97;101143.03;5061081;28;45236;-77
2021/06/29 01:46:28;;;;;;;;;1.00;1.00;;;;;25.83;44.67;101160.72;5061030;28;45371;-77
2021/06/29 01:48:54;;;;;;;;;1.75;1.75;;;;;25.76;44.90;101143.88;5059494;28;45426;-77
2021/06/29 01:51:21;;;;;;;;;1.00;1.00;;;;;25.85;44.73;101149.84;5060660;28;45480;-77
2021/06/29 01:53:49;;;;;;;;;1.00;1.00;;;;;25.89;45.07;101160.94;5059389;28;46909;-78
2021/06/29 01:56:15;;;;;;;;;3.00;1.75;;;;;25.89;44.73;101150.28;5059407;28;45363;-77
2021/06/29 01:58:53;;;;;;;;;1.00;1.00;;;;;25.79;45.20;101137.31;5064008;28;45336;-77
2021/06/29 02:01:19;;;;;;;;;2.00;2.00;;;;;25.96;44.87;101165.28;5060683;28;45216;-77
2021/06/29 02:03:45;;;;;;;;;1.00;1.00;;;;;25.69;44.83;101121.66;5059183;28;48732;-77
2021/06/29 02:06:11;;;;;;;;;2.25;2.00;;;;;25.84;44.91;101145.53;5060276;28;45492;-77
2021/06/29 02:08:37;;;;;;;;;1.00;1.00;;;;;25.93;44.93;101157.66;5060901;28;45241;-77
2021/06/29 02:11:02;;;;;;;;;1.75;1.75;;;;;25.90;45.27;101157.22;5065901;28;45171;-77
2021/06/29 02:13:28;;;;;;;;;1.25;1.25;;;;;25.65;44.97;101112.41;5080537;28;45469;-77
2021/06/29 02:15:55;;;;;;;;;1.00;1.00;;;;;25.81;44.87;101146.75;5081284;28;45530;-75
2021/06/29 02:18:21;;;;;;;;;1.25;1.00;;;;;25.83;44.84;101141.22;5081085;28;45333;-77
2021/06/29 02:20:48;;;;;;;;;2.25;1.00;;;;;25.70;44.94;101126.81;5080457;28;45268;-77
2021/06/29 02:23:13;;;;;;;;;1.00;1.00;;;;;25.76;45.08;101133.22;5080639;28;45395;-76
2021/06/29 02:25:39;;;;;;;;;1.00;1.00;;;;;25.89;44.97;101142.28;5080619;28;45256;-76
2021/06/29 02:28:04;;;;;;;;;0.25;0.25;;;;;25.86;44.96;101140.84;5080780;28;45161;-76
2021/06/29 02:30:30;;;;;;;;;1.00;1.00;;;;;25.87;44.92;101125.66;5080585;28;45208;-77
2021/06/29 02:32:55;;;;;;;;;2.00;2.00;;;;;25.96;45.05;101135.94;5080474;28;45347;-77
2021/06/29 02:35:21;;;;;;;;;1.00;1.00;;;;;25.87;44.87;101115.00;5080396;28;45221;-77
2021/06/29 02:37:46;;;;;;;;;1.00;1.00;;;;;25.93;44.46;101122.19;5076148;28;45281;-77
2021/06/29 02:40:12;;;;;;;;;1.00;1.00;;;;;26.06;44.91;101137.41;5059003;28;45227;-77
2021/06/29 02:42:38;;;;;;;;;2.00;1.50;;;;;25.99;44.80;101123.22;5058872;28;48146;-77
2021/06/29 02:45:07;;;;;;;;;2.50;2.00;;;;;25.91;44.89;101110.91;5060037;28;45543;-77
2021/06/29 02:47:37;;;;;;;;;1.75;1.75;;;;;25.90;45.04;101111.91;5060478;28;45382;-76
2021/06/29 02:50:07;;;;;;;;;1.00;1.00;;;;;26.09;44.92;101137.00;5059669;28;45204;-77
2021/06/29 02:52:33;;;;;;;;;1.50;1.50;;;;;25.90;44.90;101094.09;5059813;28;45510;-76
2021/06/29 02:55:04;;;;;;;;;1.50;1.50;;;;;25.99;44.72;101118.72;5059918;28;45308;-76
2021/06/29 02:57:30;;;;;;;;;1.00;1.00;;;;;25.73;44.72;101082.94;5066266;28;45402;-77
2021/06/29 02:59:56;;;;;;;;;1.75;1.75;;;;;26.03;44.58;101127.13;5058615;28;45633;-76
2021/06/29 03:02:22;;;;;;;;;1.67;1.67;;;;;25.96;44.54;101114.63;5060074;28;45552;-76
2021/06/29 03:04:47;;;;;;;;;2.25;1.00;;;;;25.92;44.34;101099.22;5059703;28;45410;-77
2021/06/29 03:07:12;;;;;;;;;2.67;2.00;;;;;26.05;44.78;101122.41;5059394;28;45491;-77
2021/06/29 03:09:38;;;;;;;;;1.67;1.67;;;;;25.99;44.91;101115.25;5059946;28;45403;-77
2021/06/29 03:12:04;;;;;;;;;4.00;2.00;;;;;26.07;44.37;101115.06;5073647;28;45343;-77
2021/06/29 03:14:30;;;;;;;;;2.00;2.00;;;;;26.04;44.85;101113.63;5080268;28;45295;-76
2021/06/29 03:16:55;;;;;;;;;2.00;2.00;;;;;26.05;44.60;101109.09;5095877;27;45334;-76
2021/06/29 03:19:21;;;;;;;;;2.00;2.00;;;;;25.95;44.32;101093.47;5080040;28;45397;-77
2021/06/29 03:21:46;;;;;;;;;3.00;3.00;;;;;26.08;44.76;101114.03;5079852;28;45306;-77
2021/06/29 03:24:12;;;;;;;;;4.25;3.00;;;;;26.02;44.82;101104.19;5095833;27;45552;-76
2021/06/29 03:26:38;;;;;;;;;2.00;2.00;;;;;26.13;44.71;101110.75;5081136;28;45252;-77
2021/06/29 03:29:04;;;;;;;;;2.00;2.00;;;;;25.96;44.84;101089.81;5083586;28;45386;-77
2021/06/29 03:31:32;;;;;;;;;1.25;0.75;;;;;26.18;44.79;101126.97;5083161;28;46522;-76
2021/06/29 03:33:58;;;;;;;;;2.00;2.00;;;;;26.17;44.69;101123.50;5083314;28;45487;-77
2021/06/29 03:36:24;;;;;;;;;1.00;1.00;;;;;25.95;45.02;101085.47;5082160;28;45231;-76
2021/06/29 03:38:50;;;;;;;;;2.25;2.25;;;;;26.06;44.92;101105.41;5063122;28;45445;-76
2021/06/29 03:41:15;;;;;;;;;1.00;1.00;;;;;25.84;44.76;101063.72;5062726;28;45576;-77
2021/06/29 03:43:40;;;;;;;;;2.00;2.00;;;;;26.04;45.30;101094.13;5062656;28;45322;-77
2021/06/29 03:46:06;;;;;;;;;2.25;1.75;;;;;26.09;44.40;101104.19;5062276;28;45362;-76
2021/06/29 03:48:33;;;;;;;;;4.25;2.00;;;;;25.80;44.44;101069.66;5061782;28;45465;-77
2021/06/29 03:50:58;;;;;;;;;3.00;3.00;;;;;26.03;44.80;101097.81;5061239;28;47280;-77
2021/06/29 03:53:24;;;;;;;;;1.00;1.00;;;;;25.99;44.66;101094.75;5062833;28;45470;-77
2021/06/29 03:55:49;;;;;;;;;2.25;1.75;;;;;25.88;44.67;101066.81;5063026;28;45269;-77
2021/06/29 03:58:15;;;;;;;;;2.00;1.75;;;;;26.01;44.81;101092.69;5066595;28;45300;-77
2021/06/29 04:00:40;;;;;;;;;1.50;1.50;;;;;25.73;44.26;101051.81;5062679;28;45487;-77
2021/06/29 04:03:06;;;;;;;;;2.50;2.50;;;;;25.79;44.75;101068.03;5061411;28;45529;-76
2021/06/29 04:05:31;;;;;;;;;1.25;1.25;;;;;26.05;44.82;101115.25;5062393;28;45301;-77
2021/06/29 04:07:56;;;;;;;;;1.75;1.75;;;;;25.81;44.78;101073.97;5062733;28;45347;-77
2021/06/29 04:10:22;;;;;;;;;3.75;2.25;;;;;26.07;44.70;101115.06;5062446;28;45313;-77
2021/06/29 04:12:47;;;;;;;;;3.00;3.00;;;;;25.80;44.64;101077.66;5080930;27;45539;-77
2021/06/29 04:15:13;;;;;;;;;3.00;2.50;;;;;26.02;44.83;101117.50;5062486;28;45328;-77
2021/06/29 04:17:38;;;;;;;;;3.00;3.00;;;;;26.10;44.70;101135.16;5062418;28;45318;-77
2021/06/29 04:20:06;;;;;;;;;1.75;1.75;;;;;26.17;44.70;101144.00;5062194;28;45300;-77
2021/06/29 04:22:32;;;;;;;;;2.00;2.00;;;;;26.07;44.57;101128.41;5061621;28;45236;-77
2021/06/29 04:24:57;;;;;;;;;1.75;1.75;;;;;26.02;44.45;101125.50;5062299;28;45458;-77
2021/06/29 04:27:23;;;;;;;;;1.75;1.75;;;;;26.20;44.53;101148.09;5073897;28;45718;-77
2021/06/29 04:29:50;;;;;;;;;2.50;1.25;;;;;26.08;44.68;101135.34;5060454;28;47151;-77
2021/06/29 04:32:16;;;;;;;;;3.00;3.00;;;;;26.20;44.49;101148.09;5062054;28;45465;-77
2021/06/29 04:34:41;;;;;;;;;1.00;1.00;;;;;25.85;44.18;101108.03;5062173;28;45316;-77
2021/06/29 04:37:07;;;;;;;;;2.00;2.00;;;;;26.18;44.63;101161.63;5063275;28;45457;-77
2021/06/29 04:39:33;;;;;;;;;2.25;2.25;;;;;26.13;44.74;101148.06;5060711;28;47157;-77
2021/06/29 04:41:59;;;;;;;;;2.25;2.25;;;;;25.79;44.53;101103.47;5062073;28;45336;-77
2021/06/29 04:44:24;;;;;;;;;4.00;2.00;;;;;26.21;44.49;101169.22;5062055;28;45354;-77
2021/06/29 04:46:51;;;;;;;;;2.00;2.00;;;;;26.06;44.55;101137.41;5060734;28;45543;-77
2021/06/29 04:49:19;;;;;;;;;2.00;2.00;;;;;25.81;44.53;101098.78;5061746;28;45448;-77
2021/06/29 04:51:44;;;;;;;;;2.25;2.00;;;;;25.90;44.67;101119.91;5068890;28;45536;-77
2021/06/29 04:54:10;;;;;;;;;1.50;1.50;;;;;25.81;44.58;101108.63;5082253;28;45295;-77
2021/06/29 04:56:35;;;;;;;;;2.00;2.00;;;;;26.06;44.82;101153.41;5082191;28;45272;-77
2021/06/29 04:59:02;;;;;;;;;1.75;1.75;;;;;26.15;44.80;101168.19;5068043;28;45623;-77
2021/06/29 05:01:29;;;;;;;;;3.00;3.00;;;;;26.22;44.69;101178.06;5060530;28;45647;-76
2021/06/29 05:03:55;;;;;;;;;1.75;1.75;;;;;26.13;44.51;101166.75;5061340;28;45516;-77
2021/06/29 05:06:20;;;;;;;;;2.25;2.25;;;;;26.21;45.07;101179.06;5061252;28;45182;-77
2021/06/29 05:08:46;;;;;;;;;2.25;2.25;;;;;26.02;44.72;101147.63;5076819;28;47385;-77
2021/06/29 05:11:11;;;;;;;;;2.75;2.50;;;;;26.12;45.04;101176.59;5077023;28;45379;-77
2021/06/29 05:13:37;;;;;;;;;1.25;1.25;;;;;26.09;44.76;101181.50;5061690;28;45279;-77
2021/06/29 05:16:02;;;;;;;;;2.00;2.00;;;;;25.95;44.41;101160.94;5060362;28;45228;-78
2021/06/29 05:18:28;;;;;;;;;3.25;3.25;;;;;26.09;44.84;101186.84;5061231;28;45666;-77
2021/06/29 05:20:54;;;;;;;;;1.25;1.25;;;;;26.20;44.78;101204.09;5060884;28;45308;-77
2021/06/29 05:23:21;;;;;;;;;2.00;2.00;;;;;25.97;44.58;101171.41;5061543;28;45441;-77
2021/06/29 05:25:47;;;;;;;;;2.00;2.00;;;;;26.17;44.74;101200.00;5061374;28;45261;-77
2021/06/29 05:28:12;;;;;;;;;2.00;2.00;;;;;25.98;44.62;101170.41;5060033;28;46686;-77
2021/06/29 05:30:38;;;;;;;;;2.00;2.00;;;;;25.96;44.74;101159.13;5060027;28;45293;-77
2021/06/29 05:33:03;;;;;;;;;2.25;2.25;;;;;25.84;44.71;101141.00;5060085;28;45376;-77
2021/06/29 05:35:29;;;;;;;;;2.00;1.50;;;;;25.96;44.36;101159.13;5061032;28;45220;-77
2021/06/29 05:37:54;;;;;;;;;3.00;3.00;;;;;26.04;44.64;101166.94;5062236;28;45577;-71
2021/06/29 05:40:20;;;;;;;;;1.75;1.75;;;;;25.79;44.42;101127.47;5061356;28;45213;-71
2021/06/29 05:42:45;;;;;;;;;1.75;1.75;;;;;26.07;44.50;101169.19;5061305;28;45992;-71
2021/06/29 05:45:15;;;;;;;;;3.00;3.00;;;;;26.10;44.37;101167.97;5061043;28;45569;-70
2021/06/29 05:47:41;;;;;;;;;3.50;2.75;;;;;25.87;44.57;101125.66;5060707;28;45268;-67
2021/06/29 05:50:13;;;;;;;;;2.75;2.75;;;;;25.97;44.51;101142.06;5060912;27;45633;-72
2021/06/29 05:52:39;;;;;;;;;4.00;4.00;;;;;26.11;44.69;101163.47;5060827;28;45253;-69
2021/06/29 05:55:06;;;;;;;;;4.75;3.25;;;;;26.00;44.29;101146.19;5061011;28;45374;-73
2021/06/29 05:57:31;;;;;;;;;1.75;1.75;;;;;26.14;44.71;101177.22;5066166;28;45583;-69
2021/06/29 05:59:57;;;;;;;;;4.25;3.25;;;;;26.20;44.56;101190.78;5065103;28;45549;-68
2021/06/29 06:02:22;;;;;;;;;2.50;2.50;;;;;26.12;45.02;101184.59;5078823;28;45286;-68
2021/06/29 06:04:48;;;;;;;;;3.50;2.25;;;;;26.23;45.42;101196.50;5077393;28;45313;-68
2021/06/29 06:07:13;;;;;;;;;3.00;2.00;;;;;26.20;45.10;101193.44;5078245;28;45331;-68
2021/06/29 06:09:38;;;;;;;;;2.75;2.50;;;;;26.14;45.55;101179.06;5073408;28;45398;-68
2021/06/29 06:12:05;;;;;;;;;2.75;2.75;;;;;26.02;44.94;101163.63;5067832;28;45920;-68
2021/06/29 06:14:30;;;;;;;;;3.00;3.00;;;;;26.20;44.73;101190.78;5067989;28;45165;-67
2021/06/29 06:16:56;;;;;;;;;4.00;3.00;;;;;26.17;45.31;101197.34;5069577;28;48256;-68
2021/06/29 06:19:22;;;;;;;;;3.75;2.00;;;;;26.28;45.03;101204.72;5066786;28;45415;-67
2021/06/29 06:21:47;;;;;;;;;5.25;3.25;;;;;26.21;45.27;101197.72;5063804;28;45272;-68
2021/06/29 06:24:13;;;;;;;;;2.00;2.00;;;;;26.18;45.04;101191.78;5058717;28;45410;-70
2021/06/29 06:26:39;;;;;;;;;3.25;3.25;;;;;26.18;45.25;101201.63;5075005;28;46869;-68
2021/06/29 06:29:04;;;;;;;;;2.75;2.00;;;;;26.09;45.13;101187.66;5060311;28;45462;-68
2021/06/29 06:31:30;;;;;;;;;3.50;3.00;;;;;26.33;45.34;101219.34;5060324;28;45518;-69
2021/06/29 06:33:55;;;;;;;;;4.50;2.50;;;;;26.26;45.48;101216.63;5060112;28;45329;-70
2021/06/29 06:36:21;;;;;;;;;4.00;4.00;;;;;26.20;45.20;101201.44;5061421;28;46190;-70
2021/06/29 06:38:47;;;;;;;;;4.00;4.00;;;;;26.02;45.51;101170.81;5060406;28;45462;-70
2021/06/29 06:41:15;;;;;;;;;5.75;3.00;;;;;26.03;45.09;101167.94;5060419;28;45405;-70
2021/06/29 06:43:42;;;;;;;;;3.00;3.00;;;;;25.98;45.08;101165.06;5065564;28;45500;-70
2021/06/29 06:46:11;;;;;;;;;3.00;3.00;;;;;26.04;45.15;101179.44;5095900;27;46561;-70
2021/06/29 06:48:37;;;;;;;;;7.00;4.00;;;;;26.30;45.18;101228.56;5078797;28;45421;-70
2021/06/29 06:51:04;;;;;;;;;2.50;2.50;;;;;26.24;45.25;101211.50;5096004;27;45381;-70
2021/06/29 06:53:30;;;;;;;;;5.00;4.50;;;;;26.09;45.32;101186.84;5078897;28;45653;-70
2021/06/29 06:55:56;;;;;;;;;3.75;3.00;;;;;26.13;45.48;101186.22;5095769;27;48106;-70
2021/06/29 06:58:21;;;;;;;;;3.00;3.00;;;;;26.05;45.14;101170.41;5080736;27;45253;-70
2021/06/29 07:00:46;;;;;;;;;3.25;3.00;;;;;25.96;45.22;101156.44;5059894;28;45276;-70
2021/06/29 07:03:12;;;;;;;;;4.75;4.75;;;;;26.27;45.24;101216.44;5063259;28;45580;-70
2021/06/29 07:05:37;;;;;;;;;3.00;2.75;;;;;25.97;45.19;101160.75;5063002;28;45472;-70
2021/06/29 07:08:03;;;;;;;;;3.00;3.00;;;;;26.01;45.41;101171.84;5063221;28;45269;-70
2021/06/29 07:10:28;;;;;;;;;5.25;3.25;;;;;26.23;45.25;101206.38;5062187;27;45466;-70
2021/06/29 07:12:54;;;;;;;;;2.25;2.25;;;;;26.08;44.80;101188.69;5063422;28;45420;-70
2021/06/29 07:15:21;;;;;;;;;3.25;3.25;;;;;26.34;45.25;101231.63;5063270;28;45688;-70
2021/06/29 07:17:47;;;;;;;;;3.25;3.25;;;;;26.30;45.02;101220.56;5063514;28;45307;-69
2021/06/29 07:20:13;;;;;;;;;4.00;4.00;;;;;26.26;45.12;101209.47;5063102;28;45556;-69
2021/06/29 07:22:38;;;;;;;;;5.00;3.00;;;;;26.04;45.08;101177.59;5063430;28;45483;-69
2021/06/29 07:25:06;;;;;;;;;5.50;3.75;;;;;26.17;44.85;101203.50;5062996;28;46166;-70
2021/06/29 07:27:31;;;;;;;;;3.25;3.25;;;;;26.06;45.23;101186.22;5062045;28;45450;-69
2021/06/29 07:29:57;;;;;;;;;3.50;3.00;;;;;26.10;44.96;101188.50;5062984;28;45516;-69
2021/06/29 07:32:22;;;;;;;;;3.25;2.00;;;;;26.10;44.99;101191.16;5078435;28;45531;-69
2021/06/29 07:34:48;;;;;;;;;3.25;2.00;;;;;26.32;45.15;101226.50;5062599;28;45642;-69
2021/06/29 07:37:14;;;;;;;;;3.50;2.00;;;;;26.41;45.21;101232.50;5064595;28;45489;-71
2021/06/29 07:39:39;;;;;;;;;3.00;2.00;;;;;26.20;45.06;101212.13;5061716;27;45332;-69
2021/06/29 07:42:05;;;;;;;;;3.25;3.00;;;;;26.10;45.03;101201.81;5061596;28;45347;-70
2021/06/29 07:44:30;;;;;;;;;5.25;3.50;;;;;26.15;44.97;101207.38;5062663;28;45363;-69
2021/06/29 07:46:58;;;;;;;;;2.00;2.00;;;;;26.16;44.70;101209.84;5061554;28;45501;-70
2021/06/29 07:49:24;;;;;;;;;2.00;2.00;;;;;26.23;45.01;101217.06;5062811;28;45351;-69
2021/06/29 07:51:50;;;;;;;;;4.50;3.00;;;;;26.29;45.10;101233.06;5062915;28;45230;-69
2021/06/29 07:54:17;;;;;;;;;1.75;1.75;;;;;26.29;44.87;101226.91;5062529;28;45492;-69
2021/06/29 07:56:43;;;;;;;;;3.25;3.25;;;;;26.37;44.97;101242.72;5062758;28;45236;-69
2021/06/29 07:59:08;;;;;;;;;2.00;2.00;;;;;26.37;44.97;101241.91;5067863;28;45367;-69
2021/06/29 08:01:34;;;;;;;;;3.00;3.00;;;;;26.23;45.00;101217.84;5062856;28;45425;-69
2021/06/29 08:03:59;;;;;;;;;4.75;4.75;;;;;26.10;44.90;101201.81;5062111;28;45594;-69
2021/06/29 08:06:25;;;;;;;;;3.00;3.00;;;;;26.13;45.03;101204.06;5062513;28;45452;-69
2021/06/29 08:08:50;;;;;;;;;4.00;4.00;;;;;26.12;44.82;101200.59;5061204;28;45442;-69
2021/06/29 08:11:15;;;;;;;;;4.00;4.00;;;;;25.98;45.03;101182.91;5069476;28;45269;-70
2021/06/29 08:13:41;;;;;;;;;4.50;4.25;;;;;26.07;45.17;101195.84;5081033;28;48109;-70
2021/06/29 08:16:10;;;;;;;;;4.25;3.25;;;;;26.37;45.09;101232.06;5082840;28;45514;-69
2021/06/29 08:18:36;;;;;;;;;2.75;2.50;;;;;26.02;45.30;101176.97;5082567;28;45272;-69
2021/06/29 08:21:03;;;;;;;;;7.00;4.00;;;;;26.13;45.10;101191.56;5082767;28;45226;-69
2021/06/29 08:23:29;;;;;;;;;3.50;2.75;;;;;26.29;44.94;101222.41;5082371;28;45274;-69
2021/06/29 08:25:54;;;;;;;;;5.00;4.75;;;;;26.29;44.94;101225.06;5082651;28;45511;-69
2021/06/29 08:28:20;;;;;;;;;4.00;4.00;;;;;25.90;45.13;101154.56;5082466;28;45355;-69
2021/06/29 08:30:47;;;;;;;;;4.25;4.25;;;;;26.03;44.93;101175.13;5082597;28;45313;-70
2021/06/29 08:33:13;;;;;;;;;5.75;4.50;;;;;26.05;45.00;101184.56;5081797;28;46599;-69
2021/06/29 08:35:43;;;;;;;;;4.75;4.50;;;;;26.15;44.96;101204.72;5061758;28;45434;-69
2021/06/29 08:38:09;;;;;;;;;4.25;4.25;;;;;26.05;44.74;101189.06;5063445;28;45533;-69
2021/06/29 08:40:36;;;;;;;;;3.00;3.00;;;;;26.19;44.52;101216.63;5060813;28;45359;-69
2021/06/29 08:43:06;;;;;;;;;5.75;5.75;;;;;26.33;44.61;101230.84;5061819;28;45414;-69
2021/06/29 08:45:32;;;;;;;;;4.50;4.50;;;;;26.41;44.79;101245.84;5061629;28;45987;-69
2021/06/29 08:47:59;;;;;;;;;4.00;4.00;;;;;26.40;44.97;101238.84;5061957;28;45418;-69
2021/06/29 08:50:29;;;;;;;;;4.25;3.50;;;;;26.10;44.82;101194.63;5061677;28;45539;-70
2021/06/29 08:52:55;;;;;;;;;3.25;3.25;;;;;26.30;44.80;101223.22;5060821;28;45399;-70
2021/06/29 08:55:21;;;;;;;;;6.75;5.00;;;;;26.07;44.34;101193.19;5061883;28;45286;-70
2021/06/29 08:57:46;;;;;;;;;5.50;4.25;;;;;26.22;44.71;101210.88;5067899;28;45251;-69
2021/06/29 09:00:12;;;;;;;;;5.00;5.00;;;;;26.18;44.78;101201.63;5061718;28;45216;-69
2021/06/29 09:02:41;;;;;;;;;3.50;3.50;;;;;26.32;45.01;101223.00;5061453;28;46763;-69
2021/06/29 09:05:20;;;;;;;;;5.00;5.00;;;;;26.44;44.68;101239.31;5061472;28;45409;-69
2021/06/29 09:07:46;;;;;;;;;5.00;4.00;;;;;26.18;44.83;101198.97;5061189;28;45313;-70
2021/06/29 09:10:12;;;;;;;;;3.50;3.50;;;;;26.42;44.81;101236.78;5060940;28;45231;-69
2021/06/29 09:12:46;;;;;;;;;4.50;4.50;;;;;25.88;44.76;101146.78;5078617;28;47358;-70
2021/06/29 09:15:21;;;;;;;;;4.75;4.00;;;;;26.44;44.54;101236.63;5080775;28;45357;-70
2021/06/29 09:17:46;;;;;;;;;3.00;3.00;;;;;26.41;44.58;101237.84;5081638;28;45230;-69
2021/06/29 09:20:12;;;;;;;;;5.00;5.00;;;;;26.17;44.72;101200.00;5081485;28;45465;-69
2021/06/29 09:22:37;;;;;;;;;6.75;4.75;;;;;26.30;44.51;101225.88;5080041;28;46997;-69
2021/06/29 09:25:20;;;;;;;;;4.00;4.00;;;;;26.02;44.51;101190.28;5079806;28;45315;-69
2021/06/29 09:27:47;;;;;;;;;3.50;3.50;;;;;26.40;44.67;101249.50;5081938;28;45233;-70
2021/06/29 09:30:38;;;;;;;;;3.00;3.00;;;;;26.41;44.91;101248.50;5079963;28;45470;-69
2021/06/29 09:33:23;;;;;;;;;4.75;3.25;;;;;26.22;44.82;101218.06;5081203;28;45751;-69
2021/06/29 09:35:54;;;;;;;;;3.25;3.25;;;;;26.11;44.82;101206.94;5080817;27;45165;-69
2021/06/29 09:38:23;;;;;;;;;5.50;4.00;;;;;25.91;44.61;101181.03;5064780;28;45410;-69
2021/06/29 09:40:53;;;;;;;;;3.50;3.50;;;;;26.12;44.79;101205.94;5061210;28;45194;-69
2021/06/29 09:43:20;;;;;;;;;3.00;3.00;;;;;26.33;44.86;101241.50;5060656;28;45362;-69
2021/06/29 09:45:51;;;;;;;;;3.25;3.25;;;;;26.37;44.32;101247.25;5059346;28;45365;-69
2021/06/29 09:48:28;;;;;;;;;3.50;3.00;;;;;26.29;44.74;101235.72;5059581;28;45307;-69
2021/06/29 09:50:55;;;;;;;;;3.50;3.50;;;;;26.27;44.43;101240.44;5059024;28;45426;-69
2021/06/29 09:53:27;;;;;;;;;4.00;4.00;;;;;26.11;44.65;101211.44;5060589;28;45304;-69
2021/06/29 09:56:00;;;;;;;;;5.75;4.50;;;;;26.07;44.22;101214.50;5060440;28;45338;-69
2021/06/29 09:58:28;;;;;;;;;3.00;3.00;;;;;26.14;44.45;101224.38;5066244;28;45442;-69
2021/06/29 10:00:54;;;;;;;;;2.50;2.50;;;;;26.41;44.57;101265.31;5060683;28;45186;-69
2021/06/29 10:03:22;;;;;;;;;4.25;3.75;;;;;26.44;44.69;101260.66;5060577;28;46407;-70
2021/06/29 10:05:48;;;;;;;;;3.75;3.75;;;;;26.31;44.26;101253.38;5060313;28;45263;-69
2021/06/29 10:08:25;;;;;;;;;4.25;4.25;;;;;26.27;44.57;101239.63;5060601;28;45235;-69
2021/06/29 10:11:07;;;;;;;;;4.25;4.00;;;;;26.26;44.29;101235.28;5064452;28;45268;-69
2021/06/29 10:13:36;;;;;;;;;3.00;3.00;;;;;26.24;44.68;101224.84;5080533;27;46293;-69
2021/06/29 10:16:08;;;;;;;;;5.25;4.25;;;;;26.27;44.46;101223.63;5080806;28;45228;-69
2021/06/29 10:18:39;;;;;;;;;3.75;3.75;;;;;26.21;44.18;101213.75;5080516;27;45312;-69
2021/06/29 10:21:25;;;;;;;;;4.50;4.50;;;;;26.01;44.74;101178.00;5080772;28;45394;-69
2021/06/29 10:23:55;;;;;;;;;6.00;4.25;;;;;26.23;44.44;101220.53;5080499;28;45522;-69
2021/06/29 10:26:23;;;;;;;;;4.00;4.00;;;;;26.23;44.66;101204.50;5080763;28;45242;-69
2021/06/29 10:28:49;;;;;;;;;5.00;4.00;;;;;26.54;44.25;101258.41;5080317;28;45498;-69
2021/06/29 10:31:17;;;;;;;;;4.25;3.50;;;;;26.31;44.41;101216.84;5080314;27;45470;-69
2021/06/29 10:33:43;;;;;;;;;6.25;6.25;;;;;26.25;44.25;101218.50;5080032;28;45490;-69
2021/06/29 10:36:09;;;;;;;;;3.00;3.00;;;;;26.22;44.50;101218.06;5080504;28;45299;-69
2021/06/29 10:38:34;;;;;;;;;4.00;4.00;;;;;26.22;43.98;101202.06;5059924;28;45332;-69
2021/06/29 10:41:01;;;;;;;;;5.50;4.00;;;;;26.22;44.56;101208.22;5058835;28;45220;-69
2021/06/29 10:43:28;;;;;;;;;3.25;3.25;;;;;26.20;44.44;101202.28;5059683;28;45273;-69
2021/06/29 10:45:53;;;;;;;;;3.50;3.50;;;;;26.35;44.71;101227.94;5059547;28;45258;-69
2021/06/29 10:48:23;;;;;;;;;4.00;4.00;;;;;26.55;44.10;101253.88;5059882;28;45493;-69
2021/06/29 10:50:51;;;;;;;;;4.00;4.00;;;;;26.38;44.04;101228.38;5058612;28;45256;-69
2021/06/29 10:53:39;;;;;;;;;3.50;3.50;;;;;26.34;44.52;101224.47;5059492;28;45553;-69
2021/06/29 10:56:16;;;;;;;;;4.25;3.75;;;;;26.28;44.31;101209.28;5059692;28;45327;-69
2021/06/29 10:58:47;;;;;;;;;4.50;4.50;;;;;26.31;44.13;101208.03;5064668;28;45536;-69
2021/06/29 11:01:33;;;;;;;;;5.00;4.75;;;;;26.55;44.25;101246.72;5059561;28;45395;-69
2021/06/29 11:04:01;;;;;;;;;4.25;4.25;;;;;26.24;44.46;101211.50;5057693;28;47488;-69
2021/06/29 11:06:46;;;;;;;;;4.50;4.50;;;;;26.53;44.31;101243.44;5059361;28;45421;-69
2021/06/29 11:09:15;;;;;;;;;4.25;4.25;;;;;26.30;44.07;101212.56;5059791;28;45331;-69
2021/06/29 11:11:41;;;;;;;;;4.25;4.25;;;;;26.21;44.53;101203.06;5070399;28;45501;-69
2021/06/29 11:14:29;;;;;;;;;6.00;5.00;;;;;26.58;44.35;101245.47;5079749;28;46402;-69
2021/06/29 11:16:59;;;;;;;;;4.00;4.00;;;;;26.46;44.08;101222.06;5078502;28;45471;-70
2021/06/29 11:20:12;;;;;;;;;6.50;4.50;;;;;26.39;44.09;101197.16;5079911;28;45341;-69
2021/06/29 11:22:54;;;;;;;;;6.50;6.00;;;;;26.24;44.22;101178.69;5072895;27;45467;-69
2021/06/29 11:25:41;;;;;;;;;4.00;4.00;;;;;26.38;43.98;101201.72;5078415;28;46422;-69